Time;durP1;ratioP1;P1;durP2;ratioP2;P2;SDS_P1;SDS_P2;PMS_P1;PMS_P2;Temp;Humidity;BMP_temperature;BMP_pressure;BME280_temperature;BME280_humidity;BME280_pressure;Samples;Min_cycle;Max_cycle;Signal;HPM_P1;HPM_P2
2022/05/26 00:02:35;;;;;;;33.78;10.90;;;;;;;;;;5178656;23;20119;-86
2022/05/26 00:05:02;;;;;;;34.75;11.10;;;;;;;;;;4920088;29;20119;-86
2022/05/26 00:07:28;;;;;;;39.28;11.35;;;;;;;;;;4937953;29;20048;-85
2022/05/26 00:10:02;;;;;;;27.02;10.13;;;;;;;;;;4920072;29;20043;-86
2022/05/26 00:12:28;;;;;;;41.75;12.65;;;;;;;;;;4920784;29;20067;-86
2022/05/26 00:14:54;;;;;;;34.58;11.20;;;;;;;;;;4921334;29;20071;-86
2022/05/26 00:17:22;;;;;;;35.88;11.45;;;;;;;;;;4937600;29;20083;-88
2022/05/26 00:19:49;;;;;;;37.28;11.35;;;;;;;;;;4920793;29;20035;-85
2022/05/26 00:22:15;;;;;;;42.17;11.07;;;;;;;;;;4927445;29;20059;-86
2022/05/26 00:24:42;;;;;;;34.40;10.88;;;;;;;;;;4924270;29;20083;-87
2022/05/26 00:27:08;;;;;;;35.25;11.68;;;;;;;;;;4922971;29;20071;-85
2022/05/26 00:29:34;;;;;;;36.63;11.65;;;;;;;;;;4908480;29;20063;-87
2022/05/26 00:34:35;;;;;;;37.95;11.65;;;;;;;;;;5151197;23;20063;-92
2022/05/26 00:37:05;;;;;;;36.42;12.07;;;;;;;;;;4933254;29;20479;-88
2022/05/26 00:39:36;;;;;;;29.83;12.02;;;;;;;;;;4920370;29;20070;-89
2022/05/26 00:42:04;;;;;;;37.53;12.77;;;;;;;;;;4944916;29;20120;-89
2022/05/26 00:44:37;;;;;;;29.73;12.65;;;;;;;;;;4938645;29;20046;-90
2022/05/26 00:47:16;;;;;;;37.17;13.07;;;;;;;;;;4906155;29;20058;-88
2022/05/26 00:49:54;;;;;;;36.42;12.05;;;;;;;;;;4931287;29;20852;-85
2022/05/26 00:52:22;;;;;;;41.38;13.48;;;;;;;;;;4911691;29;20055;-89
2022/05/26 00:54:50;;;;;;;29.95;12.15;;;;;;;;;;4942087;29;20047;-90
2022/05/26 00:57:23;;;;;;;38.28;13.15;;;;;;;;;;4911048;29;20044;-90
2022/05/26 01:00:04;;;;;;;46.13;12.82;;;;;;;;;;4906534;29;20373;-85
2022/05/26 01:06:10;;;;;;;31.80;12.70;;;;;;;;;;4919915;29;20115;-90
2022/05/26 01:08:55;;;;;;;38.67;12.77;;;;;;;;;;4924413;29;20589;-88
2022/05/26 01:11:27;;;;;;;39.30;12.65;;;;;;;;;;4921564;29;20040;-86
2022/05/26 01:14:08;;;;;;;39.97;12.45;;;;;;;;;;4954454;29;20054;-91
2022/05/26 01:16:55;;;;;;;41.42;12.57;;;;;;;;;;4921012;29;20035;-94
2022/05/26 01:19:39;;;;;;;47.40;13.65;;;;;;;;;;4947154;28;20086;-92
2022/05/26 01:22:29;;;;;;;40.85;12.90;;;;;;;;;;4927295;29;20075;-93
2022/05/26 01:25:04;;;;;;;42.13;12.68;;;;;;;;;;4911291;28;20083;-93
2022/05/26 01:27:50;;;;;;;39.67;12.30;;;;;;;;;;4921386;29;20060;-94
2022/05/26 01:33:33;;;;;;;40.28;12.07;;;;;;;;;;5527135;23;20052;-88
2022/05/26 01:36:10;;;;;;;52.92;12.73;;;;;;;;;;4957199;28;20040;-89
2022/05/26 01:38:42;;;;;;;42.67;11.73;;;;;;;;;;5019817;23;20074;-90
2022/05/26 01:41:13;;;;;;;50.05;13.10;;;;;;;;;;4928285;29;20132;-89
2022/05/26 01:43:47;;;;;;;47.13;13.93;;;;;;;;;;4918026;29;20080;-87
2022/05/26 01:46:27;;;;;;;42.38;12.50;;;;;;;;;;4940560;29;20099;-89
2022/05/26 01:49:09;;;;;;;29.65;10.52;;;;;;;;;;4914903;29;20072;-86
2022/05/26 01:51:35;;;;;;;42.05;12.27;;;;;;;;;;4942227;28;20054;-90
2022/05/26 01:54:08;;;;;;;38.97;11.07;;;;;;;;;;4933955;29;20063;-85
2022/05/26 01:56:41;;;;;;;37.50;9.95;;;;;;;;;;4940610;29;20032;-90
2022/05/26 01:59:10;;;;;;;42.15;10.38;;;;;;;;;;4910072;29;20079;-91
2022/05/26 02:01:39;;;;;;;47.97;10.25;;;;;;;;;;4889088;29;20044;-87
2022/05/26 02:04:09;;;;;;;36.20;8.85;;;;;;;;;;4935578;28;20071;-90
2022/05/26 02:09:30;;;;;;;32.33;8.13;;;;;;;;;;4920608;29;20059;-85
2022/05/26 02:12:08;;;;;;;31.48;7.07;;;;;;;;;;4925622;29;20067;-87
2022/05/26 02:14:39;;;;;;;32.75;7.25;;;;;;;;;;4932889;29;20112;-90
2022/05/26 02:17:16;;;;;;;30.83;6.85;;;;;;;;;;4886152;29;20040;-90
2022/05/26 02:19:50;;;;;;;33.05;6.93;;;;;;;;;;4919762;29;20096;-90
2022/05/26 02:22:32;;;;;;;32.83;7.72;;;;;;;;;;4898973;29;20107;-87
2022/05/26 02:24:58;;;;;;;30.60;7.70;;;;;;;;;;4916305;29;20051;-88
2022/05/26 02:27:54;;;;;;;33.20;6.95;;;;;;;;;;4899508;29;20052;-86
2022/05/26 02:30:22;;;;;;;29.90;6.47;;;;;;;;;;4895149;29;20091;-90
2022/05/26 02:32:50;;;;;;;37.67;7.80;;;;;;;;;;4929508;29;20081;-86
2022/05/26 02:35:22;;;;;;;29.48;6.22;;;;;;;;;;4929566;29;20047;-87
2022/05/26 02:37:50;;;;;;;30.38;6.45;;;;;;;;;;4911660;29;20048;-84
2022/05/26 02:40:16;;;;;;;33.03;6.32;;;;;;;;;;4916448;29;20094;-89
2022/05/26 02:42:48;;;;;;;23.10;6.10;;;;;;;;;;4898252;29;20063;-88
2022/05/26 02:45:39;;;;;;;29.48;6.85;;;;;;;;;;4916449;29;20481;-92
2022/05/26 02:48:08;;;;;;;27.23;6.00;;;;;;;;;;4930168;29;20040;-87
2022/05/26 02:50:45;;;;;;;29.85;7.15;;;;;;;;;;4895252;29;20068;-86
2022/05/26 02:53:29;;;;;;;30.83;6.68;;;;;;;;;;4903452;29;20508;-89
2022/05/26 02:56:11;;;;;;;25.33;6.57;;;;;;;;;;4896462;29;20140;-89
2022/05/26 02:58:41;;;;;;;35.88;7.75;;;;;;;;;;4934451;29;20059;-88
2022/05/26 03:01:10;;;;;;;32.55;7.55;;;;;;;;;;4923601;29;20052;-90
2022/05/26 03:03:40;;;;;;;28.80;7.45;;;;;;;;;;4906063;29;20049;-88
2022/05/26 03:06:14;;;;;;;41.03;8.95;;;;;;;;;;4924197;29;20107;-90
2022/05/26 03:08:44;;;;;;;33.92;7.82;;;;;;;;;;4926485;29;20059;-93
2022/05/26 03:11:29;;;;;;;33.83;7.28;;;;;;;;;;4909064;29;20053;-91
2022/05/26 03:14:01;;;;;;;34.78;8.63;;;;;;;;;;4928112;29;20084;-88
2022/05/26 03:16:46;;;;;;;37.10;8.13;;;;;;;;;;4929438;29;20060;-93
2022/05/26 03:19:12;;;;;;;33.35;6.93;;;;;;;;;;4924876;29;20040;-89
2022/05/26 03:21:40;;;;;;;29.75;6.97;;;;;;;;;;4910996;29;20037;-89
2022/05/26 03:24:10;;;;;;;26.08;7.07;;;;;;;;;;4896456;29;20046;-88
2022/05/26 03:32:49;;;;;;;28.02;6.22;;;;;;;;;;4925886;29;20032;-90
2022/05/26 03:40:51;;;;;;;27.73;6.10;;;;;;;;;;4923898;29;20062;-92
2022/05/26 03:43:20;;;;;;;23.48;5.13;;;;;;;;;;4930840;29;20048;-91
2022/05/26 03:45:47;;;;;;;18.90;4.95;;;;;;;;;;4915271;29;20182;-91
2022/05/26 03:48:14;;;;;;;16.27;4.50;;;;;;;;;;4903350;29;20047;-90
2022/05/26 03:50:43;;;;;;;24.20;4.82;;;;;;;;;;4931193;29;20044;-86
2022/05/26 03:53:15;;;;;;;21.75;4.60;;;;;;;;;;4907352;29;20055;-94
2022/05/26 03:55:41;;;;;;;20.70;5.28;;;;;;;;;;4912139;29;20503;-92
2022/05/26 03:58:19;;;;;;;26.08;4.53;;;;;;;;;;4905959;29;20412;-94
2022/05/26 04:00:51;;;;;;;20.52;3.97;;;;;;;;;;4936844;29;20519;-92
2022/05/26 04:03:39;;;;;;;23.13;4.43;;;;;;;;;;4944911;29;20059;-93
2022/05/26 04:06:06;;;;;;;19.92;3.85;;;;;;;;;;4910061;29;20044;-92
2022/05/26 04:08:56;;;;;;;11.45;3.20;;;;;;;;;;4928752;29;20035;-86
2022/05/26 04:11:35;;;;;;;14.00;4.15;;;;;;;;;;4916163;29;20043;-92
2022/05/26 04:20:16;;;;;;;19.98;4.05;;;;;;;;;;3067189;26;20119;-89
2022/05/26 04:22:51;;;;;;;18.13;3.42;;;;;;;;;;4928329;29;20051;-85
2022/05/26 04:31:08;;;;;;;18.25;3.85;;;;;;;;;;5007371;23;20128;-85
2022/05/26 04:33:34;;;;;;;15.73;3.95;;;;;;;;;;4940063;29;20067;-91
2022/05/26 04:36:04;;;;;;;16.38;3.55;;;;;;;;;;4914035;29;20046;-88
2022/05/26 04:38:58;;;;;;;17.02;3.20;;;;;;;;;;4951745;29;20079;-85
2022/05/26 04:41:53;;;;;;;18.98;3.28;;;;;;;;;;4935982;29;20066;-88
2022/05/26 04:47:43;;;;;;;12.75;3.45;;;;;;;;;;4947880;29;20024;-88
2022/05/26 04:50:42;;;;;;;;;;;;;;;;;;;;;
2022/05/26 04:53:42;;;;;;;18.75;3.95;;;13.30;99.90;;;;;;4948106;29;20060;-91
2022/05/26 04:59:07;;;;;;;16.73;2.80;;;;;;;;;;4863524;29;20053;-87
2022/05/26 05:01:34;;;;;;;15.95;3.13;;;;;;;;;;4826700;29;20092;-86
2022/05/26 05:04:31;;;;;;;25.48;3.17;;;;;;;;;;4841537;29;20060;-86
2022/05/26 05:07:19;;;;;;;16.90;3.33;;;;;;;;;;4894766;29;20056;-90
2022/05/26 05:12:57;;;;;;;13.85;2.78;;;;;;;;;;4875199;29;20637;-85
2022/05/26 05:15:41;;;;;;;13.95;2.40;;;;;;;;;;4887148;29;20104;-89
2022/05/26 05:18:38;;;;;;;10.20;2.55;;;;;;;;;;4888235;29;20227;-85
2022/05/26 05:21:07;;;;;;;14.77;2.50;;;;;;;;;;4884990;29;20499;-92
2022/05/26 05:23:40;;;;;;;12.63;2.28;;;;;;;;;;4884715;29;20059;-89
2022/05/26 05:26:09;;;;;;;13.80;2.33;;;;;;;;;;4882742;29;20041;-87
2022/05/26 05:28:43;;;;;;;18.45;2.65;;;;;;;;;;4884255;29;20120;-88
2022/05/26 05:34:08;;;;;;;13.00;2.05;;;;;;;;;;4886299;29;20052;-90
2022/05/26 05:36:47;;;;;;;15.48;2.85;;;;;;;;;;4913825;28;20059;-92
2022/05/26 05:42:36;;;;;;;10.50;2.20;;;;;;;;;;4901390;29;20083;-89
2022/05/26 05:45:38;;;;;;;11.93;2.03;;;;;;;;;;4949210;28;20059;-89
2022/05/26 05:48:23;;;;;;;10.65;2.40;;;;;;;;;;4942522;28;20054;-93
2022/05/26 05:50:54;;;;;;;9.60;2.08;;;;;;;;;;4943498;29;20097;-93
2022/05/26 06:03:10;;;;;;;11.15;1.98;;;;;;;;;;4899518;29;20077;-91
2022/05/26 06:05:40;;;;;;;11.80;2.22;;;;;;;;;;4931501;28;20103;-85
2022/05/26 06:08:17;;;;;;;11.68;2.38;;;;;;;;;;4949013;29;20058;-88
2022/05/26 06:16:13;;;;;;;12.95;2.10;;;;;;;;;;5101793;23;20094;-88
2022/05/26 06:18:56;;;;;;;;;;;;;;;;;;;;;
2022/05/26 06:21:32;;;;;;;13.93;2.00;;;;;;;;;;4966607;28;20053;-88
2022/05/26 06:24:23;;;;;;;12.88;2.47;;;;;;;;;;4981997;28;20050;-87
2022/05/26 06:26:55;;;;;;;12.57;1.92;;;;;;;;;;4982304;28;20115;-89
2022/05/26 06:37:53;;;;;;;12.00;2.47;;;;;;;;;;4982023;28;20035;-86
2022/05/26 06:40:24;;;;;;;10.23;2.05;;;;;;;;;;4985573;28;20043;-92
2022/05/26 06:42:53;;;;;;;18.45;2.92;;;;;;;;;;4967202;28;20046;-85
2022/05/26 06:45:19;;;;;;;13.75;2.35;;;;;;;;;;5021310;23;20083;-87
2022/05/26 06:48:07;;;;;;;10.27;1.60;;;;;;;;;;4929223;29;20029;-89
2022/05/26 06:54:12;;;;;;;8.05;1.50;;;;;;;;;;4935371;29;20055;-85
2022/05/26 07:03:00;;;;;;;11.38;1.92;;;;;;;;;;4985418;23;20091;-86
2022/05/26 07:05:35;;;;;;;9.88;1.67;;;;;;;;;;4928512;29;20040;-88
2022/05/26 07:08:28;;;;;;;12.75;2.30;;;;;;;;;;4927367;29;20151;-89
2022/05/26 07:10:54;;;;;;;20.95;3.53;;;;;;;;;;4928732;29;20044;-87
2022/05/26 07:13:59;;;;;;;10.32;1.90;;;;;;;;;;4935225;29;20038;-86
2022/05/26 07:16:45;;;;;;;14.63;2.08;;;;;;;;;;4908067;29;20072;-89
2022/05/26 07:22:34;;;;;;;9.70;2.28;;;;;;;;;;4927771;29;20189;-89
2022/05/26 07:25:23;;;;;;;;;;;;;;;;;;;;;
2022/05/26 07:27:58;;;;;;;11.90;1.83;;;;;;;;;;4908752;29;20519;-86
2022/05/26 07:48:17;;;;;;;6.88;1.73;;;;;;;;;;4952290;29;20192;-89
2022/05/26 07:50:43;;;;;;;7.10;1.40;;;;;;;;;;4948268;29;20054;-86
2022/05/26 07:53:09;;;;;;;11.80;1.55;;;;;;;;;;4930265;29;20119;-87
2022/05/26 07:55:36;;;;;;;10.60;1.52;;;;;;;;;;4964573;29;20086;-86
2022/05/26 07:58:02;;;;;;;8.95;1.58;;;;;;;;;;4962803;29;20046;-89
2022/05/26 08:00:29;;;;;;;8.18;1.63;;;;;;;;;;4947141;29;20039;-86
2022/05/26 08:02:57;;;;;;;8.75;1.35;;;;;;;;;;4948052;29;20070;-87
2022/05/26 08:05:23;;;;;;;6.60;1.35;;;;;;;;;;4946541;29;20181;-89
2022/05/26 08:07:53;;;;;;;8.93;1.65;;;;;;;;;;4947718;29;20138;-85
2022/05/26 08:10:20;;;;;;;6.28;1.58;;;;;;;;;;4931095;29;20065;-90
2022/05/26 08:12:46;;;;;;;8.02;1.20;;;;;;;;;;4948989;29;20067;-86
2022/05/26 08:15:15;;;;;;;12.55;1.50;;;;;;;;;;4963545;29;20047;-87
2022/05/26 08:17:41;;;;;;;3.80;1.23;;;;;;;;;;4931311;29;20035;-85
2022/05/26 08:20:20;;;;;;;7.40;1.38;;;;;;;;;;4931628;29;20044;-84
2022/05/26 08:26:22;;;;;;;10.02;1.60;;;;;;;;;;4964935;28;20090;-91
2022/05/26 08:29:02;;;;;;;9.40;1.58;;;;;;;;;;4966188;28;20043;-87
2022/05/26 08:31:47;;;;;;;9.13;1.52;;;16.70;99.90;;;;;;4948685;29;20073;-81
2022/05/26 08:34:13;;;;;;;5.88;1.42;;;;;;;;;;4962605;28;20046;-83
2022/05/26 08:37:19;;;;;;;9.45;1.40;;;;;;;;;;4964999;29;20058;-84
2022/05/26 08:43:10;;;;;;;12.20;1.65;;;;;;;;;;4957258;23;20051;-83
2022/05/26 08:45:55;;;;;;;12.07;1.85;;;;;;;;;;4955465;28;20054;-84
2022/05/26 08:48:51;;;;;;;8.35;1.48;;;;;;;;;;4923008;29;20043;-86
2022/05/26 08:51:26;;;;;;;6.13;1.52;;;;;;;;;;4944668;29;21258;-85
2022/05/26 08:53:56;;;;;;;9.75;1.42;;;;;;;;;;4947419;29;20101;-86
2022/05/26 08:56:30;;;;;;;4.00;1.38;;;;;;;;;;4931215;29;20142;-87
2022/05/26 09:02:38;;;;;;;8.50;1.42;;;;;;;;;;4972016;23;20062;-88
2022/05/26 09:13:50;;;;;;;6.63;1.35;;;;;;;;;;4940105;29;20901;-82
2022/05/26 09:16:17;;;;;;;7.20;1.25;;;;;;;;;;4918804;29;20133;-80
2022/05/26 09:18:44;;;;;;;5.07;1.35;;;;;;;;;;4949135;29;20420;-79
2022/05/26 09:21:16;;;;;;;7.25;1.27;;;;;;;;;;4951931;28;20471;-80
2022/05/26 09:23:44;;;;;;;8.43;1.50;;;;;;;;;;4933303;29;20395;-81
2022/05/26 09:26:12;;;;;;;6.15;1.30;;;;;;;;;;4933214;29;20083;-80
2022/05/26 09:28:38;;;;;;;6.07;1.20;;;;;;;;;;4951335;29;20063;-79
2022/05/26 09:31:24;;;;;;;10.07;1.45;;;;;;;;;;4950325;29;20129;-80
2022/05/26 09:34:03;;;;;;;9.48;1.40;;;;;;;;;;4951010;28;20495;-79
2022/05/26 09:36:49;;;;;;;7.22;1.20;;;;;;;;;;4931175;29;20444;-80
2022/05/26 09:39:26;;;;;;;6.55;1.17;;;;;;;;;;4931369;29;20048;-80
2022/05/26 09:41:54;;;;;;;10.68;1.45;;;;;;;;;;4931373;29;20388;-81
2022/05/26 09:44:38;;;;;;;4.60;0.85;;;;;;;;;;4930521;29;20047;-80
2022/05/26 09:47:20;;;;;;;3.83;1.05;;;;;;;;;;4932610;29;20586;-80
2022/05/26 09:49:49;;;;;;;7.30;1.40;;;;;;;;;;4930935;29;20134;-79
2022/05/26 09:52:19;;;;;;;6.63;1.52;;;;;;;;;;4933605;29;20050;-80
2022/05/26 09:54:46;;;;;;;4.90;1.02;;;;;;;;;;4949907;29;20507;-81
2022/05/26 09:57:28;;;;;;;8.90;1.60;;;;;;;;;;4950501;28;20056;-80
2022/05/26 09:59:54;;;;;;;4.35;1.08;;;;;;;;;;4937240;29;20059;-81
2022/05/26 10:02:49;;;;;;;5.43;1.23;;;;;;;;;;4920712;29;20051;-80
2022/05/26 10:05:15;;;;;;;7.90;1.63;;;;;;;;;;4946238;29;20567;-80
2022/05/26 10:08:00;;;;;;;6.40;1.30;;;;;;;;;;4934123;29;20062;-80
2022/05/26 10:10:45;;;;;;;4.88;1.10;;;;;;;;;;4953334;28;20108;-80
2022/05/26 10:13:11;;;;;;;5.85;1.38;;;;;;;;;;4953212;29;20047;-80
2022/05/26 10:15:56;;;;;;;9.27;1.00;;;;;;;;;;4952714;28;20067;-80
2022/05/26 10:18:34;;;;;;;5.88;0.88;;;;;;;;;;4951522;29;20047;-81
2022/05/26 10:21:07;;;;;;;3.35;1.00;;;;;;;;;;4952062;28;20529;-80
2022/05/26 10:23:50;;;;;;;4.53;1.30;;;;;;;;;;4935102;29;20564;-80
2022/05/26 10:26:19;;;;;;;5.97;1.10;;;;;;;;;;4952888;28;20054;-81
2022/05/26 10:29:03;;;;;;;4.85;1.10;;;;;;;;;;4934605;29;20596;-80
2022/05/26 10:31:57;;;;;;;4.75;1.08;;;;;;;;;;4951942;29;20043;-80
2022/05/26 10:34:43;;;;;;;4.85;1.05;;;;;;;;;;4952688;29;20098;-80
2022/05/26 10:37:12;;;;;;;7.40;1.02;;;;;;;;;;4942989;29;20075;-81
2022/05/26 10:39:48;;;;;;;6.88;1.23;;;;;;;;;;4932775;29;20530;-80
2022/05/26 10:42:19;;;;;;;5.25;1.10;;;;;;;;;;4932971;29;20519;-81
2022/05/26 10:44:45;;;;;;;4.78;1.63;;;;;;;;;;4932908;29;20040;-80
2022/05/26 10:47:29;;;;;;;8.57;1.25;;;;;;;;;;4933086;29;20114;-80
2022/05/26 10:50:01;;;;;;;6.28;1.50;;;;;;;;;;4933845;29;20086;-79
2022/05/26 10:52:48;;;;;;;6.90;1.17;;;;;;;;;;4937338;29;20053;-81
2022/05/26 10:55:20;;;;;;;6.95;1.08;;;;;;;;;;4916020;29;20070;-81
2022/05/26 10:57:56;;;;;;;5.85;1.30;;;;;;;;;;4916802;29;20508;-80
2022/05/26 11:00:24;;;;;;;9.35;1.17;;;;;;;;;;4933344;29;20586;-83
2022/05/26 11:03:03;;;;;;;4.75;1.23;;;;;;;;;;4916874;29;20050;-82
2022/05/26 11:05:36;;;;;;;4.45;1.33;;;;;;;;;;4942868;29;20047;-82
2022/05/26 11:08:22;;;;;;;7.07;1.07;;;;;;;;;;4952870;29;20058;-81
2022/05/26 11:10:54;;;;;;;5.60;1.35;;;;;;;;;;4932146;29;20039;-81
2022/05/26 11:13:38;;;;;;;5.20;1.08;;;;;;;;;;4937924;29;20043;-81
2022/05/26 11:19:00;;;;;;;10.32;1.52;;;;;;;;;;4929809;29;20040;-79
2022/05/26 11:21:26;;;;;;;3.03;1.08;;;;;;;;;;4949787;29;20054;-79
2022/05/26 11:23:52;;;;;;;7.55;1.52;;;;;;;;;;4946353;29;20149;-81
2022/05/26 11:26:37;;;;;;;7.22;1.42;;;;;;;;;;4951422;28;20043;-80
2022/05/26 11:29:09;;;;;;;5.60;1.52;;;;;;;;;;4935169;29;20035;-81
2022/05/26 11:37:30;;;;;;;4.80;1.17;;;;;;;;;;4951927;28;21145;-80
2022/05/26 11:40:01;;;;;;;5.97;1.25;;;;;;;;;;4919099;29;20476;-81
2022/05/26 11:42:30;;;;;;;6.72;1.35;;;;;;;;;;4947540;29;20047;-80
2022/05/26 11:45:08;;;;;;;3.83;1.50;;;;;;;;;;4950477;28;20047;-81
2022/05/26 11:47:47;;;;;;;7.95;1.52;;;;;;;;;;4934361;29;20475;-80
2022/05/26 11:50:52;;;;;;;8.38;1.40;;;;;;;;;;4937878;29;20044;-80
2022/05/26 11:53:33;;;;;;;8.18;1.52;;;;;;;;;;4925041;29;20818;-80
2022/05/26 11:55:59;;;;;;;4.05;1.13;;;;;;;;;;4951191;29;20047;-80
2022/05/26 11:58:31;;;;;;;7.63;1.40;;;;;;;;;;4935687;29;20131;-79
2022/05/26 12:01:12;;;;;;;6.72;1.30;;;;;;;;;;4932292;29;20126;-79
2022/05/26 12:03:53;;;;;;;13.63;1.38;;;;;;;;;;4951767;29;20063;-81
2022/05/26 12:06:38;;;;;;;8.32;1.48;;;;;;;;;;4948822;29;20427;-81
2022/05/26 12:09:11;;;;;;;5.97;1.30;;;;;;;;;;4951282;29;20126;-80
2022/05/26 12:11:38;;;;;;;;;;;;;;;;;;4950954;29;20059;-80
2022/05/26 12:14:05;;;;;;;4.40;1.20;;;;;;;;;;4942211;29;20049;-80
2022/05/26 12:16:33;;;;;;;11.82;1.50;;;;;;;;;;4949807;28;20486;-79
2022/05/26 12:19:08;;;;;;;9.13;1.10;;;;;;;;;;4950305;29;20090;-81
2022/05/26 12:21:35;;;;;;;5.47;1.13;;;;;;;;;;4950424;28;20039;-81
2022/05/26 12:24:19;;;;;;;4.95;1.20;;;;;;;;;;4950520;28;20040;-81
2022/05/26 12:26:54;;;;;;;3.28;1.05;;;;;;;;;;4950610;29;20118;-81
2022/05/26 12:29:39;;;;;;;3.13;0.90;;;;;;;;;;4948305;28;20510;-81
2022/05/26 12:32:09;;;;;;;5.82;1.13;;;;;;;;;;4960940;28;20035;-82
2022/05/26 12:34:45;;;;;;;7.35;1.13;;;;;;;;;;4944171;29;20067;-82
2022/05/26 12:37:17;;;;;;;4.75;1.45;;;;;;;;;;4957049;29;20055;-81
2022/05/26 12:39:43;;;;;;;8.18;1.77;;;;;;;;;;4958674;28;20169;-81
2022/05/26 12:42:15;;;;;;;7.07;1.40;;;;;;;;;;4924549;29;20043;-81
2022/05/26 12:44:48;;;;;;;5.55;1.30;;;;;;;;;;4920796;29;20040;-81
2022/05/26 12:47:36;;;;;;;5.25;0.93;;;;;;;;;;4916791;29;20138;-81
2022/05/26 12:50:11;;;;;;;6.50;1.67;;;;;;;;;;4913949;29;20059;-81
2022/05/26 12:52:42;;;;;;;7.20;1.20;;;;;;;;;;4935366;29;20054;-81
2022/05/26 12:55:18;;;;;;;8.98;1.63;;;;;;;;;;4947945;29;20047;-81
2022/05/26 12:57:48;;;;;;;10.38;2.00;;;;;;;;;;4949045;28;20046;-82
2022/05/26 13:00:43;;;;;;;9.68;1.58;;;;;;;;;;4948730;29;20039;-82
2022/05/26 13:03:24;;;;;;;7.85;1.80;;;;;;;;;;4925703;29;20059;-81
2022/05/26 13:06:07;;;;;;;7.43;1.83;;;;;;;;;;4954660;29;20043;-81
2022/05/26 13:08:53;;;;;;;5.97;1.60;;;;;;;;;;4954280;29;20074;-80
2022/05/26 13:11:22;;;;;;;5.18;1.30;;;;;;;;;;4941916;29;20640;-82
2022/05/26 13:13:53;;;;;;;6.40;1.65;;;;;;;;;;4933115;29;20135;-82
2022/05/26 13:16:21;;;;;;;4.35;1.63;;;;;;;;;;4925764;29;20051;-82
2022/05/26 13:18:48;;;;;;;11.00;1.90;;;;;;;;;;4924373;29;20052;-82
2022/05/26 13:21:21;;;;;;;13.65;1.77;;;;;;;;;;4925206;29;20063;-83
2022/05/26 13:23:49;;;;;;;8.13;1.50;;;;;;;;;;4940342;29;20058;-83
2022/05/26 13:26:16;;;;;;;6.18;1.42;;;;;;;;;;4940055;29;20131;-82
2022/05/26 13:28:53;;;;;;;4.72;1.38;;;;;;;;;;4938636;29;20594;-81
2022/05/26 13:34:07;;;;;;;5.65;1.27;;;;;;;;;;4901888;29;20052;-81
2022/05/26 13:36:55;;;;;;;5.43;1.17;;;;;;;;;;4899025;29;20043;-80
2022/05/26 13:39:23;;;;;;;5.63;1.63;;;;;;;;;;4915137;29;20169;-81
2022/05/26 13:41:51;;;;;;;3.40;0.95;;;;;;;;;;4914615;29;20048;-81
2022/05/26 13:44:38;;;;;;;5.57;1.13;;;;;;;;;;4914469;29;20873;-81
2022/05/26 13:47:13;;;;;;;4.80;1.33;;;;;;;;;;4895570;29;20150;-81
2022/05/26 13:50:00;;;;;;;8.77;1.30;;;;;;;;;;4912163;29;20624;-81
2022/05/26 13:52:31;;;;;;;6.50;1.05;;;;;;;;;;4912257;29;20048;-81
2022/05/26 13:54:59;;;;;;;5.28;1.13;;;;;;;;;;4910564;29;20055;-81
2022/05/26 13:57:28;;;;;;;3.53;1.02;;;;;;;;;;4910948;29;20048;-80
2022/05/26 13:59:56;;;;;;;4.13;1.00;;;;;;;;;;4876439;29;20188;-81
2022/05/26 14:02:28;;;;;;;7.45;1.25;;;;;;;;;;4919783;29;20146;-81
2022/05/26 14:04:58;;;;;;;6.13;1.60;;;;;;;;;;4946780;29;20050;-81
2022/05/26 14:07:25;;;;;;;5.57;1.42;;;;;;;;;;4934399;29;20096;-82
2022/05/26 14:10:13;;;;;;;4.15;1.20;;;;;;;;;;4944500;29;20039;-82
2022/05/26 14:12:40;;;;;;;8.43;1.55;;;;;;;;;;4939598;29;20048;-81
2022/05/26 14:15:06;;;;;;;5.53;1.10;;;;;;;;;;4933512;29;20052;-81
2022/05/26 14:17:34;;;;;;;7.05;1.20;;;;;;;;;;4917019;29;20060;-81
2022/05/26 14:27:14;;;;;;;7.32;1.48;;;;;;;;;;4931969;29;20059;-80
2022/05/26 14:29:42;;;;;;;4.95;1.35;;;;;;;;;;4932032;29;20044;-79
2022/05/26 14:32:17;;;;;;;15.52;3.20;;;;;;;;;;4940607;23;20055;-82
2022/05/26 14:34:48;;;;;;;5.90;1.35;;;;;;;;;;4914966;29;20059;-81
2022/05/26 14:37:15;;;;;;;8.45;1.70;;;;;;;;;;4936894;29;20102;-81
2022/05/26 14:39:41;;;;;;;8.70;1.92;;;;;;;;;;4934651;29;20130;-81
2022/05/26 14:42:12;;;;;;;10.60;1.65;;;;;;;;;;4916220;29;20055;-81
2022/05/26 14:44:39;;;;;;;10.98;1.88;;;;;;;;;;4935003;29;20058;-82
2022/05/26 14:47:05;;;;;;;7.30;2.00;;;;;;;;;;4934330;29;20154;-82
2022/05/26 14:49:31;;;;;;;6.68;1.52;;;;;;;;;;4915319;29;20162;-81
2022/05/26 14:51:57;;;;;;;7.68;1.50;;;;;;;;;;4919211;29;20139;-85
2022/05/26 14:57:10;;;;;;;7.38;1.38;;;;;;;;;;4936217;29;20048;-80
2022/05/26 14:59:37;;;;;;;6.97;1.73;;;;;;;;;;4921896;29;20055;-81
2022/05/26 15:02:03;;;;;;;7.70;2.15;;;;;;;;;;4921202;29;20487;-79
2022/05/26 15:04:32;;;;;;;5.63;1.88;;;;;;;;;;4922349;29;20087;-81
2022/05/26 15:07:12;;;;;;;13.93;2.38;;;;;;;;;;4938654;29;20044;-80
2022/05/26 15:09:38;;;;;;;12.02;1.77;;;;;;;;;;4924959;29;20427;-81
2022/05/26 15:12:04;;;;;;;5.25;1.77;;;;;;;;;;4936811;29;20042;-81
2022/05/26 15:14:39;;;;;;;7.28;1.65;;;;;;;;;;4934112;29;20047;-82
2022/05/26 15:17:14;;;;;;;10.77;2.13;;;;;;;;;;4917347;29;20044;-81
2022/05/26 15:19:47;;;;;;;8.65;2.15;;;;;;;;;;4932817;29;20086;-81
2022/05/26 15:22:14;;;;;;;10.45;2.15;;;;;;;;;;4904822;29;20186;-80
2022/05/26 15:24:41;;;;;;;6.65;1.92;;;;;;;;;;4916344;29;20040;-81
2022/05/26 15:27:07;;;;;;;9.55;1.85;;;;;;;;;;4916963;29;20060;-81
2022/05/26 15:29:34;;;;;;;15.50;2.97;;;;;;;;;;4932946;29;20044;-81
2022/05/26 15:32:00;;;;;;;12.63;2.25;;;;;;;;;;4933533;29;20538;-80
2022/05/26 15:34:26;;;;;;;9.68;2.28;;;;;;;;;;4930476;29;20059;-81
2022/05/26 15:36:53;;;;;;;13.32;2.38;;;;;;;;;;4933830;29;20044;-81
2022/05/26 15:39:19;;;;;;;8.93;1.98;;;;;;;;;;4933455;29;20724;-80
2022/05/26 15:41:45;;;;;;;7.55;2.13;;;;;;;;;;4932301;29;20131;-80
2022/05/26 15:44:13;;;;;;;7.72;1.83;;;;;;;;;;4916290;29;20040;-81
2022/05/26 15:46:40;;;;;;;5.18;2.03;;;;;;;;;;4915719;29;20083;-80
2022/05/26 15:49:09;;;;;;;11.93;3.00;;;;;;;;;;4912310;29;20090;-81
2022/05/26 15:51:52;;;;;;;9.05;2.10;;;;;;;;;;4932904;29;20478;-81
2022/05/26 15:54:21;;;;;;;7.57;1.95;;;;;;;;;;4934410;29;20123;-80
2022/05/26 15:56:52;;;;;;;8.07;1.98;;;;;;;;;;4936996;29;20542;-82
2022/05/26 15:59:22;;;;;;;9.82;2.13;;;;;;;;;;4900418;29;20057;-80
2022/05/26 16:01:48;;;;;;;12.45;2.05;;;;;;;;;;4880591;29;20134;-80
2022/05/26 16:04:14;;;;;;;9.07;2.30;;;;;;;;;;4896216;29;20064;-81
2022/05/26 16:06:41;;;;;;;7.47;1.83;;;;;;;;;;4897900;29;20132;-81
2022/05/26 16:09:07;;;;;;;8.98;2.15;;;;;;;;;;4898540;29;20053;-82
2022/05/26 16:11:41;;;;;;;9.13;1.90;;;;;;;;;;4898374;29;20056;-80
2022/05/26 16:14:07;;;;;;;8.07;1.77;;;;;;;;;;4898220;29;20064;-81
2022/05/26 16:16:33;;;;;;;6.35;1.88;;;;;;;;;;4901645;29;20052;-80
2022/05/26 16:18:59;;;;;;;8.75;2.00;;;;;;;;;;4896192;29;20130;-80
2022/05/26 16:21:26;;;;;;;9.43;2.17;;;;;;;;;;4901949;29;20994;-80
2022/05/26 16:23:53;;;;;;;8.60;2.13;;;;;;;;;;4893430;29;20048;-81
2022/05/26 16:26:20;;;;;;;6.53;1.98;;;;;;;;;;4896152;29;20060;-81
2022/05/26 16:29:07;;;;;;;7.10;2.33;;;;;;;;;;4893611;29;20049;-80
2022/05/26 16:31:33;;;;;;;9.15;2.33;;;;;;;;;;4934140;29;20090;-81
2022/05/26 16:33:59;;;;;;;7.93;1.95;;;;;;;;;;4931618;29;20056;-81
2022/05/26 16:36:43;;;;;;;9.48;2.15;;;;;;;;;;4931100;29;20610;-81
2022/05/26 16:39:30;;;;;;;7.63;2.38;;;;;;;;;;4934039;29;20395;-81
2022/05/26 16:41:57;;;;;;;7.57;2.45;;;;;;;;;;4932962;29;20039;-82
2022/05/26 16:44:24;;;;;;;9.57;2.47;;;;;;;;;;4935333;29;20487;-80
2022/05/26 16:46:50;;;;;;;8.98;2.08;;;;;;;;;;4933669;29;20468;-81
2022/05/26 16:49:19;;;;;;;8.90;2.15;;;;;;;;;;4935300;29;20054;-82
2022/05/26 16:51:46;;;;;;;8.23;2.50;;;;;;;;;;4935575;29;20039;-81
2022/05/26 16:54:23;;;;;;;7.45;2.50;;;;;;;;;;4943527;29;20046;-81
2022/05/26 16:56:50;;;;;;;12.45;2.55;;;;;;;;;;4935895;29;20084;-81
2022/05/26 16:59:16;;;;;;;9.43;2.78;;;;;;;;;;4930852;29;20040;-80
2022/05/26 17:01:42;;;;;;;11.95;3.08;;;;;;;;;;4906804;29;20052;-82
2022/05/26 17:04:28;;;;;;;9.82;3.03;;;;;;;;;;4919308;29;20133;-82
2022/05/26 17:06:55;;;;;;;9.52;2.97;;;;;;;;;;4914718;29;20056;-80
2022/05/26 17:09:36;;;;;;;11.88;3.05;;;;;;;;;;4896173;29;20051;-80
2022/05/26 17:12:02;;;;;;;8.88;2.95;;;;;;;;;;4917287;29;20075;-81
2022/05/26 17:22:44;;;;;;;14.90;4.22;;;;;;;;;;4928620;29;20969;-81
2022/05/26 17:25:17;;;;;;;11.23;2.92;;;;;;;;;;4932219;29;20044;-82
2022/05/26 17:27:49;;;;;;;8.77;2.92;;;;;;;;;;4912826;29;20051;-81
2022/05/26 17:30:17;;;;;;;10.20;3.40;;;;;;;;;;4931483;29;20403;-80
2022/05/26 17:32:43;;;;;;;12.00;3.40;;;;;;;;;;4930308;29;20087;-81
2022/05/26 17:35:20;;;;;;;11.40;3.10;;;;;;;;;;4935875;29;20028;-80
2022/05/26 17:37:49;;;;;;;8.18;2.88;;;;;;;;;;4931929;29;20090;-81
2022/05/26 17:40:17;;;;;;;11.77;3.33;;;;;;;;;;4933646;29;20047;-81
2022/05/26 17:42:43;;;;;;;11.82;4.25;;;;;;;;;;4934878;29;20052;-81
2022/05/26 17:45:11;;;;;;;14.35;4.50;;;;;;;;;;4931916;29;20460;-81
2022/05/26 17:47:37;;;;;;;16.25;4.55;;;;;;;;;;4931537;29;20191;-82
2022/05/26 17:50:03;;;;;;;11.93;4.65;;;;;;;;;;4927241;29;20058;-80
2022/05/26 17:52:31;;;;;;;20.98;5.47;;;;;;;;;;4931312;29;20107;-81